sensor_id;sensor_type;location;lat;lon;timestamp;temperature;humidity
3418;DHT22;1722;51.316;12.370;2023-01-04T00:00:39;6.30;95.70
3418;DHT22;1722;51.316;12.370;2023-01-04T00:03:06;6.20;95.80
3418;DHT22;1722;51.316;12.370;2023-01-04T00:05:34;6.20;95.80
3418;DHT22;1722;51.316;12.370;2023-01-04T00:08:03;6.30;95.70
3418;DHT22;1722;51.316;12.370;2023-01-04T00:10:31;6.30;95.70
3418;DHT22;1722;51.316;12.370;2023-01-04T00:12:58;6.20;95.90
3418;DHT22;1722;51.316;12.370;2023-01-04T00:15:26;6.20;95.80
3418;DHT22;1722;51.316;12.370;2023-01-04T00:17:53;6.10;96.00
3418;DHT22;1722;51.316;12.370;2023-01-04T00:20:20;6.10;96.20
3418;DHT22;1722;51.316;12.370;2023-01-04T00:22:48;6.00;96.30
3418;DHT22;1722;51.316;12.370;2023-01-04T00:25:17;6.00;96.40
3418;DHT22;1722;51.316;12.370;2023-01-04T00:27:44;6.00;96.70
3418;DHT22;1722;51.316;12.370;2023-01-04T00:30:12;6.10;96.10
3418;DHT22;1722;51.316;12.370;2023-01-04T00:32:40;6.30;95.70
3418;DHT22;1722;51.316;12.370;2023-01-04T00:35:08;6.50;95.30
3418;DHT22;1722;51.316;12.370;2023-01-04T00:37:35;6.40;95.50
3418;DHT22;1722;51.316;12.370;2023-01-04T00:40:04;6.40;95.30
3418;DHT22;1722;51.316;12.370;2023-01-04T00:42:33;6.50;95.30
3418;DHT22;1722;51.316;12.370;2023-01-04T00:45:00;6.50;95.30
3418;DHT22;1722;51.316;12.370;2023-01-04T00:47:28;6.40;95.60
3418;DHT22;1722;51.316;12.370;2023-01-04T00:49:55;6.20;95.80
3418;DHT22;1722;51.316;12.370;2023-01-04T00:52:23;6.30;95.80
3418;DHT22;1722;51.316;12.370;2023-01-04T00:54:50;6.40;95.50
3418;DHT22;1722;51.316;12.370;2023-01-04T00:57:18;6.40;95.40
3418;DHT22;1722;51.316;12.370;2023-01-04T00:59:46;6.20;95.80
3418;DHT22;1722;51.316;12.370;2023-01-04T01:02:14;6.10;96.10
3418;DHT22;1722;51.316;12.370;2023-01-04T01:04:42;6.00;96.30
3418;DHT22;1722;51.316;12.370;2023-01-04T01:07:09;5.90;96.50
3418;DHT22;1722;51.316;12.370;2023-01-04T01:09:36;5.80;96.70
3418;DHT22;1722;51.316;12.370;2023-01-04T01:12:04;5.90;96.60
3418;DHT22;1722;51.316;12.370;2023-01-04T01:14:32;5.90;96.60
3418;DHT22;1722;51.316;12.370;2023-01-04T01:17:01;5.80;96.70
3418;DHT22;1722;51.316;12.370;2023-01-04T01:19:29;5.80;96.80
3418;DHT22;1722;51.316;12.370;2023-01-04T01:21:57;5.80;96.80
3418;DHT22;1722;51.316;12.370;2023-01-04T01:24:26;5.80;96.70
3418;DHT22;1722;51.316;12.370;2023-01-04T01:26:53;5.90;96.50
3418;DHT22;1722;51.316;12.370;2023-01-04T01:29:21;5.90;96.50
3418;DHT22;1722;51.316;12.370;2023-01-04T01:31:49;5.90;96.50
3418;DHT22;1722;51.316;12.370;2023-01-04T01:34:18;5.80;96.70
3418;DHT22;1722;51.316;12.370;2023-01-04T01:36:45;5.90;96.60
3418;DHT22;1722;51.316;12.370;2023-01-04T01:39:13;5.90;96.40
3418;DHT22;1722;51.316;12.370;2023-01-04T01:41:40;5.90;96.30
3418;DHT22;1722;51.316;12.370;2023-01-04T01:47:12;6.10;96.00
3418;DHT22;1722;51.316;12.370;2023-01-04T01:49:42;6.20;95.80
3418;DHT22;1722;51.316;12.370;2023-01-04T01:52:14;6.20;95.70
3418;DHT22;1722;51.316;12.370;2023-01-04T01:54:46;6.30;95.80
3418;DHT22;1722;51.316;12.370;2023-01-04T01:57:18;6.20;95.90
3418;DHT22;1722;51.316;12.370;2023-01-04T01:59:48;6.00;96.30
3418;DHT22;1722;51.316;12.370;2023-01-04T02:02:16;5.90;96.50
3418;DHT22;1722;51.316;12.370;2023-01-04T02:04:47;5.80;96.90
3418;DHT22;1722;51.316;12.370;2023-01-04T02:07:19;5.60;97.30
3418;DHT22;1722;51.316;12.370;2023-01-04T02:09:48;5.60;97.50
3418;DHT22;1722;51.316;12.370;2023-01-04T02:12:16;5.60;97.50
3418;DHT22;1722;51.316;12.370;2023-01-04T02:14:46;5.60;97.60
3418;DHT22;1722;51.316;12.370;2023-01-04T02:17:21;5.60;97.50
3418;DHT22;1722;51.316;12.370;2023-01-04T02:32:24;5.70;97.40
3418;DHT22;1722;51.316;12.370;2023-01-04T02:34:59;5.60;97.70
3418;DHT22;1722;51.316;12.370;2023-01-04T02:37:34;5.60;97.60
3418;DHT22;1722;51.316;12.370;2023-01-04T02:40:13;5.50;97.70
3418;DHT22;1722;51.316;12.370;2023-01-04T02:42:47;5.60;97.90
3418;DHT22;1722;51.316;12.370;2023-01-04T02:45:38;5.60;97.60
3418;DHT22;1722;51.316;12.370;2023-01-04T02:48:08;5.60;97.60
3418;DHT22;1722;51.316;12.370;2023-01-04T02:50:55;5.60;97.50
3418;DHT22;1722;51.316;12.370;2023-01-04T02:53:27;5.70;97.30
3418;DHT22;1722;51.316;12.370;2023-01-04T02:56:06;5.70;97.30
3418;DHT22;1722;51.316;12.370;2023-01-04T02:58:49;5.80;97.10
3418;DHT22;1722;51.316;12.370;2023-01-04T03:01:23;5.80;97.20
3418;DHT22;1722;51.316;12.370;2023-01-04T03:04:22;5.70;97.20
3418;DHT22;1722;51.316;12.370;2023-01-04T03:07:17;5.70;97.30
3418;DHT22;1722;51.316;12.370;2023-01-04T03:09:54;5.60;97.40
3418;DHT22;1722;51.316;12.370;2023-01-04T03:12:26;5.60;97.40
3418;DHT22;1722;51.316;12.370;2023-01-04T03:15:03;5.70;97.30
3418;DHT22;1722;51.316;12.370;2023-01-04T03:17:36;5.70;97.30
3418;DHT22;1722;51.316;12.370;2023-01-04T03:20:09;5.70;97.20
3418;DHT22;1722;51.316;12.370;2023-01-04T03:22:41;5.80;97.10
3418;DHT22;1722;51.316;12.370;2023-01-04T03:25:32;5.70;97.20
3418;DHT22;1722;51.316;12.370;2023-01-04T03:28:20;5.70;97.20
3418;DHT22;1722;51.316;12.370;2023-01-04T03:31:11;5.70;97.20
3418;DHT22;1722;51.316;12.370;2023-01-04T03:33:57;5.60;97.30
3418;DHT22;1722;51.316;12.370;2023-01-04T03:37:03;5.70;97.30
3418;DHT22;1722;51.316;12.370;2023-01-04T03:39:40;5.70;97.20
3418;DHT22;1722;51.316;12.370;2023-01-04T03:42:41;5.60;97.30
3418;DHT22;1722;51.316;12.370;2023-01-04T03:45:31;5.60;97.20
3418;DHT22;1722;51.316;12.370;2023-01-04T03:48:20;5.60;97.30
3418;DHT22;1722;51.316;12.370;2023-01-04T03:51:06;5.70;97.10
3418;DHT22;1722;51.316;12.370;2023-01-04T03:53:39;5.80;96.90
3418;DHT22;1722;51.316;12.370;2023-01-04T03:56:10;5.80;97.20
3418;DHT22;1722;51.316;12.370;2023-01-04T03:58:39;5.80;96.90
3418;DHT22;1722;51.316;12.370;2023-01-04T04:01:06;5.70;97.00
3418;DHT22;1722;51.316;12.370;2023-01-04T04:03:34;5.70;97.00
3418;DHT22;1722;51.316;12.370;2023-01-04T04:06:19;5.70;97.20
3418;DHT22;1722;51.316;12.370;2023-01-04T04:09:05;5.60;97.20
3418;DHT22;1722;51.316;12.370;2023-01-04T04:11:33;5.70;97.20
3418;DHT22;1722;51.316;12.370;2023-01-04T04:14:00;5.70;97.10
3418;DHT22;1722;51.316;12.370;2023-01-04T04:16:28;5.70;97.10
3418;DHT22;1722;51.316;12.370;2023-01-04T04:18:55;5.70;97.10
3418;DHT22;1722;51.316;12.370;2023-01-04T04:21:23;5.80;97.10
3418;DHT22;1722;51.316;12.370;2023-01-04T04:23:52;5.70;97.20
3418;DHT22;1722;51.316;12.370;2023-01-04T04:26:21;5.70;97.20
3418;DHT22;1722;51.316;12.370;2023-01-04T04:28:50;5.80;97.20
3418;DHT22;1722;51.316;12.370;2023-01-04T04:31:17;5.80;97.10
3418;DHT22;1722;51.316;12.370;2023-01-04T04:33:44;5.90;97.00
3418;DHT22;1722;51.316;12.370;2023-01-04T04:36:12;5.80;97.10
3418;DHT22;1722;51.316;12.370;2023-01-04T04:38:39;5.80;97.20
3418;DHT22;1722;51.316;12.370;2023-01-04T04:41:08;5.80;97.10
3418;DHT22;1722;51.316;12.370;2023-01-04T04:43:55;5.80;97.10
3418;DHT22;1722;51.316;12.370;2023-01-04T04:46:23;5.80;97.20
3418;DHT22;1722;51.316;12.370;2023-01-04T04:48:51;5.80;97.10
3418;DHT22;1722;51.316;12.370;2023-01-04T04:51:18;5.90;97.00
3418;DHT22;1722;51.316;12.370;2023-01-04T04:53:46;5.90;97.00
3418;DHT22;1722;51.316;12.370;2023-01-04T04:56:14;5.90;96.90
3418;DHT22;1722;51.316;12.370;2023-01-04T04:58:41;6.00;96.80
3418;DHT22;1722;51.316;12.370;2023-01-04T05:01:11;6.00;96.80
3418;DHT22;1722;51.316;12.370;2023-01-04T05:03:38;6.10;96.70
3418;DHT22;1722;51.316;12.370;2023-01-04T05:06:06;6.10;96.60
3418;DHT22;1722;51.316;12.370;2023-01-04T05:08:33;6.10;96.70
3418;DHT22;1722;51.316;12.370;2023-01-04T05:11:04;6.10;96.70
3418;DHT22;1722;51.316;12.370;2023-01-04T05:13:33;6.20;96.80
3418;DHT22;1722;51.316;12.370;2023-01-04T05:16:01;6.20;96.70
3418;DHT22;1722;51.316;12.370;2023-01-04T05:18:30;6.20;96.50
3418;DHT22;1722;51.316;12.370;2023-01-04T05:20:58;6.30;96.50
3418;DHT22;1722;51.316;12.370;2023-01-04T05:23:26;6.40;96.40
3418;DHT22;1722;51.316;12.370;2023-01-04T05:25:55;6.40;96.40
3418;DHT22;1722;51.316;12.370;2023-01-04T05:28:23;6.50;96.30
3418;DHT22;1722;51.316;12.370;2023-01-04T05:30:51;6.50;96.30
3418;DHT22;1722;51.316;12.370;2023-01-04T05:33:20;6.50;96.50
3418;DHT22;1722;51.316;12.370;2023-01-04T05:35:50;6.60;96.10
3418;DHT22;1722;51.316;12.370;2023-01-04T05:38:18;6.60;96.20
3418;DHT22;1722;51.316;12.370;2023-01-04T05:40:47;6.60;96.20
3418;DHT22;1722;51.316;12.370;2023-01-04T05:43:15;6.70;96.10
3418;DHT22;1722;51.316;12.370;2023-01-04T05:45:47;6.70;96.10
3418;DHT22;1722;51.316;12.370;2023-01-04T05:48:14;6.70;96.10
3418;DHT22;1722;51.316;12.370;2023-01-04T05:50:42;6.80;96.10
3418;DHT22;1722;51.316;12.370;2023-01-04T05:53:13;6.80;95.90
3418;DHT22;1722;51.316;12.370;2023-01-04T05:55:42;6.90;95.70
3418;DHT22;1722;51.316;12.370;2023-01-04T05:58:10;7.00;95.70
3418;DHT22;1722;51.316;12.370;2023-01-04T06:00:37;7.00;95.70
3418;DHT22;1722;51.316;12.370;2023-01-04T06:03:05;7.10;95.50
3418;DHT22;1722;51.316;12.370;2023-01-04T06:05:32;7.10;95.70
3418;DHT22;1722;51.316;12.370;2023-01-04T06:08:00;7.10;95.70
3418;DHT22;1722;51.316;12.370;2023-01-04T06:10:28;7.10;95.60
3418;DHT22;1722;51.316;12.370;2023-01-04T06:12:56;7.10;95.50
3418;DHT22;1722;51.316;12.370;2023-01-04T06:15:23;7.10;95.50
3418;DHT22;1722;51.316;12.370;2023-01-04T06:17:51;7.20;95.30
3418;DHT22;1722;51.316;12.370;2023-01-04T06:20:18;7.30;95.20
3418;DHT22;1722;51.316;12.370;2023-01-04T06:22:46;7.20;95.10
3418;DHT22;1722;51.316;12.370;2023-01-04T06:25:13;7.20;95.20
3418;DHT22;1722;51.316;12.370;2023-01-04T06:27:42;7.20;95.20
3418;DHT22;1722;51.316;12.370;2023-01-04T06:30:10;7.20;95.10
3418;DHT22;1722;51.316;12.370;2023-01-04T06:32:37;7.20;95.30
3418;DHT22;1722;51.316;12.370;2023-01-04T06:35:05;7.20;95.30
3418;DHT22;1722;51.316;12.370;2023-01-04T06:37:33;7.20;95.70
3418;DHT22;1722;51.316;12.370;2023-01-04T06:40:01;7.10;95.70
3418;DHT22;1722;51.316;12.370;2023-01-04T06:42:29;7.10;96.10
3418;DHT22;1722;51.316;12.370;2023-01-04T06:45:14;7.10;96.40
3418;DHT22;1722;51.316;12.370;2023-01-04T06:47:42;7.10;96.60
3418;DHT22;1722;51.316;12.370;2023-01-04T06:50:10;7.10;96.80
3418;DHT22;1722;51.316;12.370;2023-01-04T06:52:38;7.00;96.80
3418;DHT22;1722;51.316;12.370;2023-01-04T06:55:06;6.90;97.30
3418;DHT22;1722;51.316;12.370;2023-01-04T06:57:35;7.00;97.40
3418;DHT22;1722;51.316;12.370;2023-01-04T07:00:03;7.00;97.60
3418;DHT22;1722;51.316;12.370;2023-01-04T07:02:32;7.00;97.60
3418;DHT22;1722;51.316;12.370;2023-01-04T07:05:00;7.10;97.70
3418;DHT22;1722;51.316;12.370;2023-01-04T07:07:27;7.10;97.80
3418;DHT22;1722;51.316;12.370;2023-01-04T07:09:55;7.10;97.70
3418;DHT22;1722;51.316;12.370;2023-01-04T07:12:22;7.00;98.00
3418;DHT22;1722;51.316;12.370;2023-01-04T07:14:50;7.00;98.10
3418;DHT22;1722;51.316;12.370;2023-01-04T07:17:18;6.90;98.20
3418;DHT22;1722;51.316;12.370;2023-01-04T07:19:46;6.90;98.40
3418;DHT22;1722;51.316;12.370;2023-01-04T07:22:14;6.80;98.50
3418;DHT22;1722;51.316;12.370;2023-01-04T07:24:42;6.80;98.30
3418;DHT22;1722;51.316;12.370;2023-01-04T07:27:10;6.80;98.50
3418;DHT22;1722;51.316;12.370;2023-01-04T07:29:37;6.80;98.30
3418;DHT22;1722;51.316;12.370;2023-01-04T07:32:09;6.90;98.30
3418;DHT22;1722;51.316;12.370;2023-01-04T07:34:36;7.00;98.10
3418;DHT22;1722;51.316;12.370;2023-01-04T07:37:06;7.00;97.70
3418;DHT22;1722;51.316;12.370;2023-01-04T07:39:34;7.10;97.90
3418;DHT22;1722;51.316;12.370;2023-01-04T07:42:02;7.10;97.90
3418;DHT22;1722;51.316;12.370;2023-01-04T07:44:29;7.20;97.90
3418;DHT22;1722;51.316;12.370;2023-01-04T07:46:57;7.20;97.50
3418;DHT22;1722;51.316;12.370;2023-01-04T07:49:24;7.30;97.40
3418;DHT22;1722;51.316;12.370;2023-01-04T07:51:52;7.30;97.20
3418;DHT22;1722;51.316;12.370;2023-01-04T07:54:21;7.30;97.40
3418;DHT22;1722;51.316;12.370;2023-01-04T07:56:50;7.40;97.20
3418;DHT22;1722;51.316;12.370;2023-01-04T07:59:18;7.40;96.90
3418;DHT22;1722;51.316;12.370;2023-01-04T08:01:46;7.40;97.10
3418;DHT22;1722;51.316;12.370;2023-01-04T08:04:16;7.40;97.20
3418;DHT22;1722;51.316;12.370;2023-01-04T08:06:44;7.30;97.30
3418;DHT22;1722;51.316;12.370;2023-01-04T08:09:12;7.30;97.20
3418;DHT22;1722;51.316;12.370;2023-01-04T08:11:41;7.20;97.60
3418;DHT22;1722;51.316;12.370;2023-01-04T08:14:09;7.20;97.60
3418;DHT22;1722;51.316;12.370;2023-01-04T08:16:39;7.20;97.50
3418;DHT22;1722;51.316;12.370;2023-01-04T08:19:12;7.20;97.40
3418;DHT22;1722;51.316;12.370;2023-01-04T08:21:39;7.20;97.30
3418;DHT22;1722;51.316;12.370;2023-01-04T08:24:09;7.20;97.40
3418;DHT22;1722;51.316;12.370;2023-01-04T08:26:37;7.30;97.40
3418;DHT22;1722;51.316;12.370;2023-01-04T08:29:05;7.20;97.60
3418;DHT22;1722;51.316;12.370;2023-01-04T08:31:33;7.10;97.40
3418;DHT22;1722;51.316;12.370;2023-01-04T08:34:03;7.10;97.30
3418;DHT22;1722;51.316;12.370;2023-01-04T08:36:33;7.10;97.30
3418;DHT22;1722;51.316;12.370;2023-01-04T08:39:03;7.10;97.20
3418;DHT22;1722;51.316;12.370;2023-01-04T08:41:33;7.10;97.10
3418;DHT22;1722;51.316;12.370;2023-01-04T08:44:17;7.20;97.40
3418;DHT22;1722;51.316;12.370;2023-01-04T08:46:45;7.30;96.80
3418;DHT22;1722;51.316;12.370;2023-01-04T08:49:12;7.30;96.70
3418;DHT22;1722;51.316;12.370;2023-01-04T08:51:41;7.30;96.50
3418;DHT22;1722;51.316;12.370;2023-01-04T08:54:09;7.30;96.50
3418;DHT22;1722;51.316;12.370;2023-01-04T08:56:37;7.30;96.50
3418;DHT22;1722;51.316;12.370;2023-01-04T08:59:05;7.30;96.30
3418;DHT22;1722;51.316;12.370;2023-01-04T09:01:34;7.40;96.40
3418;DHT22;1722;51.316;12.370;2023-01-04T09:04:02;7.40;96.30
3418;DHT22;1722;51.316;12.370;2023-01-04T09:06:30;7.40;96.00
3418;DHT22;1722;51.316;12.370;2023-01-04T09:08:57;7.40;96.30
3418;DHT22;1722;51.316;12.370;2023-01-04T09:11:25;7.40;96.10
3418;DHT22;1722;51.316;12.370;2023-01-04T09:13:54;7.40;96.10
3418;DHT22;1722;51.316;12.370;2023-01-04T09:16:22;7.40;96.00
3418;DHT22;1722;51.316;12.370;2023-01-04T09:18:51;7.40;96.40
3418;DHT22;1722;51.316;12.370;2023-01-04T09:21:21;7.50;96.10
3418;DHT22;1722;51.316;12.370;2023-01-04T09:23:48;7.50;96.10
3418;DHT22;1722;51.316;12.370;2023-01-04T09:26:17;7.60;95.60
3418;DHT22;1722;51.316;12.370;2023-01-04T09:28:47;7.60;95.70
3418;DHT22;1722;51.316;12.370;2023-01-04T09:31:16;7.60;95.50
3418;DHT22;1722;51.316;12.370;2023-01-04T09:33:44;7.60;95.60
3418;DHT22;1722;51.316;12.370;2023-01-04T09:36:15;7.60;95.70
3418;DHT22;1722;51.316;12.370;2023-01-04T09:38:43;7.60;95.60
3418;DHT22;1722;51.316;12.370;2023-01-04T09:41:17;7.60;95.70
3418;DHT22;1722;51.316;12.370;2023-01-04T09:43:48;7.70;95.70
3418;DHT22;1722;51.316;12.370;2023-01-04T09:46:23;7.70;95.80
3418;DHT22;1722;51.316;12.370;2023-01-04T09:48:57;7.60;96.00
3418;DHT22;1722;51.316;12.370;2023-01-04T09:51:33;7.60;95.90
3418;DHT22;1722;51.316;12.370;2023-01-04T09:54:05;7.60;95.80
3418;DHT22;1722;51.316;12.370;2023-01-04T09:56:35;7.70;95.80
3418;DHT22;1722;51.316;12.370;2023-01-04T09:59:07;7.70;95.70
3418;DHT22;1722;51.316;12.370;2023-01-04T10:01:41;7.70;95.50
3418;DHT22;1722;51.316;12.370;2023-01-04T10:04:15;7.70;95.60
3418;DHT22;1722;51.316;12.370;2023-01-04T10:06:45;7.70;95.50
3418;DHT22;1722;51.316;12.370;2023-01-04T10:09:14;7.80;95.20
3418;DHT22;1722;51.316;12.370;2023-01-04T10:11:52;7.80;95.20
3418;DHT22;1722;51.316;12.370;2023-01-04T10:14:33;7.80;95.30
3418;DHT22;1722;51.316;12.370;2023-01-04T10:17:17;7.80;95.20
3418;DHT22;1722;51.316;12.370;2023-01-04T10:20:09;7.80;95.10
3418;DHT22;1722;51.316;12.370;2023-01-04T10:22:45;7.90;95.00
3418;DHT22;1722;51.316;12.370;2023-01-04T10:25:23;7.90;94.90
3418;DHT22;1722;51.316;12.370;2023-01-04T10:28:09;7.90;94.70
3418;DHT22;1722;51.316;12.370;2023-01-04T10:30:46;7.90;94.80
3418;DHT22;1722;51.316;12.370;2023-01-04T10:33:20;7.90;94.80
3418;DHT22;1722;51.316;12.370;2023-01-04T10:35:50;7.90;94.80
3418;DHT22;1722;51.316;12.370;2023-01-04T10:38:30;8.00;94.80
3418;DHT22;1722;51.316;12.370;2023-01-04T10:41:04;8.00;94.70
3418;DHT22;1722;51.316;12.370;2023-01-04T10:43:40;8.00;94.70
3418;DHT22;1722;51.316;12.370;2023-01-04T10:46:12;8.00;94.60
3418;DHT22;1722;51.316;12.370;2023-01-04T10:48:47;8.00;94.50
3418;DHT22;1722;51.316;12.370;2023-01-04T10:51:23;8.00;94.60
3418;DHT22;1722;51.316;12.370;2023-01-04T10:53:56;8.00;94.60
3418;DHT22;1722;51.316;12.370;2023-01-04T10:56:29;8.00;94.80
3418;DHT22;1722;51.316;12.370;2023-01-04T10:59:04;8.10;94.40
3418;DHT22;1722;51.316;12.370;2023-01-04T11:01:34;8.10;94.40
3418;DHT22;1722;51.316;12.370;2023-01-04T11:04:08;8.20;94.40
3418;DHT22;1722;51.316;12.370;2023-01-04T11:06:41;8.20;94.20
3418;DHT22;1722;51.316;12.370;2023-01-04T11:09:15;8.20;94.20
3418;DHT22;1722;51.316;12.370;2023-01-04T11:11:45;8.10;94.40
3418;DHT22;1722;51.316;12.370;2023-01-04T11:14:13;8.10;94.40
3418;DHT22;1722;51.316;12.370;2023-01-04T11:16:43;8.10;94.20
3418;DHT22;1722;51.316;12.370;2023-01-04T11:19:12;8.10;94.30
3418;DHT22;1722;51.316;12.370;2023-01-04T11:21:43;8.10;94.30
3418;DHT22;1722;51.316;12.370;2023-01-04T11:24:15;8.10;94.30
3418;DHT22;1722;51.316;12.370;2023-01-04T11:26:44;8.10;94.30
3418;DHT22;1722;51.316;12.370;2023-01-04T11:29:25;8.10;94.20
3418;DHT22;1722;51.316;12.370;2023-01-04T11:31:57;8.20;94.40
3418;DHT22;1722;51.316;12.370;2023-01-04T11:34:47;8.10;94.50
3418;DHT22;1722;51.316;12.370;2023-01-04T11:37:24;8.20;95.00
3418;DHT22;1722;51.316;12.370;2023-01-04T11:40:10;8.10;95.60
3418;DHT22;1722;51.316;12.370;2023-01-04T11:42:38;8.10;96.00
3418;DHT22;1722;51.316;12.370;2023-01-04T11:45:12;8.10;96.30
3418;DHT22;1722;51.316;12.370;2023-01-04T11:47:47;8.00;96.60
3418;DHT22;1722;51.316;12.370;2023-01-04T11:50:37;8.00;96.60
3418;DHT22;1722;51.316;12.370;2023-01-04T11:53:25;8.00;96.90
3418;DHT22;1722;51.316;12.370;2023-01-04T11:56:08;8.00;97.00
3418;DHT22;1722;51.316;12.370;2023-01-04T11:58:36;7.90;97.10
3418;DHT22;1722;51.316;12.370;2023-01-04T12:01:04;7.90;97.10
3418;DHT22;1722;51.316;12.370;2023-01-04T12:03:34;8.00;97.20
3418;DHT22;1722;51.316;12.370;2023-01-04T12:06:09;7.90;97.20
3418;DHT22;1722;51.316;12.370;2023-01-04T12:08:38;7.90;97.30
3418;DHT22;1722;51.316;12.370;2023-01-04T12:11:27;8.00;97.20
3418;DHT22;1722;51.316;12.370;2023-01-04T12:13:57;8.00;97.10
3418;DHT22;1722;51.316;12.370;2023-01-04T12:16:33;8.00;97.00
3418;DHT22;1722;51.316;12.370;2023-01-04T12:19:07;8.00;96.80
3418;DHT22;1722;51.316;12.370;2023-01-04T12:21:35;8.00;97.10
3418;DHT22;1722;51.316;12.370;2023-01-04T12:24:05;8.10;96.80
3418;DHT22;1722;51.316;12.370;2023-01-04T12:26:39;8.10;96.80
3418;DHT22;1722;51.316;12.370;2023-01-04T12:29:32;8.10;96.60
3418;DHT22;1722;51.316;12.370;2023-01-04T12:32:39;8.10;96.70
3418;DHT22;1722;51.316;12.370;2023-01-04T12:39:02;8.10;96.50
3418;DHT22;1722;51.316;12.370;2023-01-04T12:45:08;8.10;96.40
3418;DHT22;1722;51.316;12.370;2023-01-04T12:47:40;8.20;96.30
3418;DHT22;1722;51.316;12.370;2023-01-04T12:50:26;8.30;96.20
3418;DHT22;1722;51.316;12.370;2023-01-04T12:52:58;8.30;96.30
3418;DHT22;1722;51.316;12.370;2023-01-04T12:55:50;8.30;96.20
3418;DHT22;1722;51.316;12.370;2023-01-04T13:01:25;8.30;96.40
3418;DHT22;1722;51.316;12.370;2023-01-04T13:03:56;8.40;96.30
3418;DHT22;1722;51.316;12.370;2023-01-04T13:06:26;8.30;96.30
3418;DHT22;1722;51.316;12.370;2023-01-04T13:08:55;8.30;96.40
3418;DHT22;1722;51.316;12.370;2023-01-04T13:14:27;8.50;96.10
3418;DHT22;1722;51.316;12.370;2023-01-04T13:17:14;8.60;96.00
3418;DHT22;1722;51.316;12.370;2023-01-04T13:19:43;8.60;96.10
3418;DHT22;1722;51.316;12.370;2023-01-04T13:22:23;8.60;96.20
3418;DHT22;1722;51.316;12.370;2023-01-04T13:24:52;8.70;96.00
3418;DHT22;1722;51.316;12.370;2023-01-04T13:27:23;8.70;96.20
3418;DHT22;1722;51.316;12.370;2023-01-04T13:29:51;8.70;96.30
3418;DHT22;1722;51.316;12.370;2023-01-04T13:32:24;8.60;96.40
3418;DHT22;1722;51.316;12.370;2023-01-04T13:34:54;8.70;96.40
3418;DHT22;1722;51.316;12.370;2023-01-04T13:37:29;8.80;96.40
3418;DHT22;1722;51.316;12.370;2023-01-04T13:40:19;8.80;96.50
3418;DHT22;1722;51.316;12.370;2023-01-04T13:42:49;8.80;96.40
3418;DHT22;1722;51.316;12.370;2023-01-04T13:45:35;8.90;96.40
3418;DHT22;1722;51.316;12.370;2023-01-04T13:48:09;8.90;96.40
3418;DHT22;1722;51.316;12.370;2023-01-04T13:50:38;9.00;96.30
3418;DHT22;1722;51.316;12.370;2023-01-04T13:53:20;9.00;96.20
3418;DHT22;1722;51.316;12.370;2023-01-04T13:55:50;9.10;96.20
3418;DHT22;1722;51.316;12.370;2023-01-04T13:58:18;9.20;96.10
3418;DHT22;1722;51.316;12.370;2023-01-04T14:00:49;9.10;96.00
3418;DHT22;1722;51.316;12.370;2023-01-04T14:03:31;9.20;96.20
3418;DHT22;1722;51.316;12.370;2023-01-04T14:06:18;9.20;95.90
3418;DHT22;1722;51.316;12.370;2023-01-04T14:08:51;9.20;95.80
3418;DHT22;1722;51.316;12.370;2023-01-04T14:11:22;9.20;95.90
3418;DHT22;1722;51.316;12.370;2023-01-04T14:14:20;9.30;96.00
3418;DHT22;1722;51.316;12.370;2023-01-04T14:16:50;9.30;96.50
3418;DHT22;1722;51.316;12.370;2023-01-04T14:19:50;9.20;96.80
3418;DHT22;1722;51.316;12.370;2023-01-04T14:22:38;9.20;96.90
3418;DHT22;1722;51.316;12.370;2023-01-04T14:25:38;9.30;97.00
3418;DHT22;1722;51.316;12.370;2023-01-04T14:28:29;9.20;97.00
3418;DHT22;1722;51.316;12.370;2023-01-04T14:31:13;9.20;97.20
3418;DHT22;1722;51.316;12.370;2023-01-04T14:33:43;9.20;97.10
3418;DHT22;1722;51.316;12.370;2023-01-04T14:36:17;9.20;97.10
3418;DHT22;1722;51.316;12.370;2023-01-04T14:41:34;9.20;97.00
3418;DHT22;1722;51.316;12.370;2023-01-04T14:44:08;9.20;96.90
3418;DHT22;1722;51.316;12.370;2023-01-04T14:46:36;9.20;97.00
3418;DHT22;1722;51.316;12.370;2023-01-04T14:49:04;9.30;97.00
3418;DHT22;1722;51.316;12.370;2023-01-04T14:51:36;9.30;97.00
3418;DHT22;1722;51.316;12.370;2023-01-04T14:54:05;9.30;96.90
3418;DHT22;1722;51.316;12.370;2023-01-04T14:56:33;9.30;96.90
3418;DHT22;1722;51.316;12.370;2023-01-04T14:59:00;9.30;96.80
3418;DHT22;1722;51.316;12.370;2023-01-04T15:01:28;9.30;96.80
3418;DHT22;1722;51.316;12.370;2023-01-04T15:03:55;9.40;96.60
3418;DHT22;1722;51.316;12.370;2023-01-04T15:06:23;9.40;96.70
3418;DHT22;1722;51.316;12.370;2023-01-04T15:08:52;9.30;96.80
3418;DHT22;1722;51.316;12.370;2023-01-04T15:11:19;9.30;96.90
3418;DHT22;1722;51.316;12.370;2023-01-04T15:13:47;9.30;96.60
3418;DHT22;1722;51.316;12.370;2023-01-04T15:16:16;9.40;97.00
3418;DHT22;1722;51.316;12.370;2023-01-04T15:18:45;9.30;96.70
3418;DHT22;1722;51.316;12.370;2023-01-04T15:21:13;9.30;96.70
3418;DHT22;1722;51.316;12.370;2023-01-04T15:23:40;9.30;96.90
3418;DHT22;1722;51.316;12.370;2023-01-04T15:26:10;9.30;97.30
3418;DHT22;1722;51.316;12.370;2023-01-04T15:28:38;9.30;97.00
3418;DHT22;1722;51.316;12.370;2023-01-04T15:31:07;9.30;97.10
3418;DHT22;1722;51.316;12.370;2023-01-04T15:33:36;9.30;97.40
3418;DHT22;1722;51.316;12.370;2023-01-04T15:36:05;9.40;97.30
3418;DHT22;1722;51.316;12.370;2023-01-04T15:38:33;9.30;97.30
3418;DHT22;1722;51.316;12.370;2023-01-04T15:41:03;9.30;97.40
3418;DHT22;1722;51.316;12.370;2023-01-04T15:43:34;9.30;97.30
3418;DHT22;1722;51.316;12.370;2023-01-04T15:46:05;9.40;97.20
3418;DHT22;1722;51.316;12.370;2023-01-04T15:48:33;9.40;97.10
3418;DHT22;1722;51.316;12.370;2023-01-04T15:51:02;9.30;97.20
3418;DHT22;1722;51.316;12.370;2023-01-04T15:53:31;9.30;97.20
3418;DHT22;1722;51.316;12.370;2023-01-04T15:56:06;9.30;97.10
3418;DHT22;1722;51.316;12.370;2023-01-04T15:58:35;9.40;97.00
3418;DHT22;1722;51.316;12.370;2023-01-04T16:01:07;9.30;97.20
3418;DHT22;1722;51.316;12.370;2023-01-04T16:03:35;9.30;97.20
3418;DHT22;1722;51.316;12.370;2023-01-04T16:06:04;9.30;97.10
3418;DHT22;1722;51.316;12.370;2023-01-04T16:08:31;9.30;97.10
3418;DHT22;1722;51.316;12.370;2023-01-04T16:11:07;9.30;97.20
3418;DHT22;1722;51.316;12.370;2023-01-04T16:13:35;9.30;97.10
3418;DHT22;1722;51.316;12.370;2023-01-04T16:16:03;9.30;97.10
3418;DHT22;1722;51.316;12.370;2023-01-04T16:18:31;9.30;97.20
3418;DHT22;1722;51.316;12.370;2023-01-04T16:20:59;9.40;97.20
3418;DHT22;1722;51.316;12.370;2023-01-04T16:23:26;9.40;97.20
3418;DHT22;1722;51.316;12.370;2023-01-04T16:26:04;9.40;97.10
3418;DHT22;1722;51.316;12.370;2023-01-04T16:28:32;9.40;97.20
3418;DHT22;1722;51.316;12.370;2023-01-04T16:31:02;9.40;97.10
3418;DHT22;1722;51.316;12.370;2023-01-04T16:33:30;9.40;97.20
3418;DHT22;1722;51.316;12.370;2023-01-04T16:35:59;9.40;97.10
3418;DHT22;1722;51.316;12.370;2023-01-04T16:38:26;9.40;97.10
3418;DHT22;1722;51.316;12.370;2023-01-04T16:40:59;9.40;97.00
3418;DHT22;1722;51.316;12.370;2023-01-04T16:43:28;9.40;96.90
3418;DHT22;1722;51.316;12.370;2023-01-04T16:46:18;9.50;96.70
3418;DHT22;1722;51.316;12.370;2023-01-04T16:48:48;9.60;96.70
3418;DHT22;1722;51.316;12.370;2023-01-04T16:51:16;9.50;96.60
3418;DHT22;1722;51.316;12.370;2023-01-04T16:53:44;9.60;96.60
3418;DHT22;1722;51.316;12.370;2023-01-04T16:56:13;9.50;96.60
3418;DHT22;1722;51.316;12.370;2023-01-04T16:58:41;9.60;96.50
3418;DHT22;1722;51.316;12.370;2023-01-04T17:01:12;9.70;96.40
3418;DHT22;1722;51.316;12.370;2023-01-04T17:03:42;9.80;96.30